Chesterfield, MA (01012)

1:49 PM EST on December 07, 2016 (GMT -0500)
Chesterfield | | Change Station

Elev 1190 ft 42.36 °N, 72.85 °W | Updated 8 minutes ago

Overcast
Overcast
34.9 °F
Feels Like 35 °F
N
0.0
Wind Variable Wind from SSE
Gusts 0.0 mph

Today
High -- | Low -- °F
--% Chance of Precip.
Yesterday
High -- | Low -- °F
Precip. -- in
Pressure 29.97 in
Visibility 10.0 miles
Clouds Overcast 800 ft
Windchill 35 °F
Dew Point 34 °F
Humidity 96%
Rainfall 0.05 in
Snow Depth Not available.
7:07 AM 4:18 PM
First Quarter, 55% visible
METAR KBAF 071753Z 00000KT 10SM OVC008 03/02 A2995 RMK AO2 SLP147 60000 T00330022 10039 20006 56020
Pressure 29.97 in
Visibility 10.0 miles
Clouds Overcast 800 ft
Windchill 35 °F
Dew Point 34 °F
Humidity 96%
Rainfall 0.05 in
Snow Depth Not available.
7:07 AM 4:18 PM
First Quarter, 55% visible
METAR KBAF 071753Z 00000KT 10SM OVC008 03/02 A2995 RMK AO2 SLP147 60000 T00330022 10039 20006 56020

10-Day Weather Forecast

Almanac

Astronomy

Dec. 07, 2016 Rise Set
Actual Time
Civil Twilight
Nautical Twilight
Astronomical Twilight
Moon
Length of Visible Light
Length of Day
Tomorrow will be .
, % of the Moon is Illuminated

Today's Extremes

State Highs State Lows

Community

WunderPhotos

Upload Photos

1,956,162 photos uploaded!

WunderBlog® & News

Nearby

Air Quality

  Air Quality AQ Index Pollutant
Not available.

Snow Depth

Station Depth Elevation

Earthquake Activity

City Distance Mag. Time & Date
Minimum magnitude displayed is 2.5.

Coastal Water Temperatures

Place Temperature

Stations

Nearby Weather Stations

Station Location Temp. Windchill Dew Point Humidity Wind Precip. Elev Updated Type
                   

Watches & Warnings

There are currently no watches in effect.